createdAt,value
2023-11-14T00:01:58.394Z,5.75
2023-11-14T00:04:00.062Z,7.22
2023-11-14T00:06:01.626Z,9.30
2023-11-14T00:08:03.464Z,7.90
2023-11-14T00:10:07.762Z,6.72
2023-11-14T00:12:09.361Z,4.78
2023-11-14T00:14:10.922Z,6.57
2023-11-14T00:16:12.524Z,5.70
2023-11-14T00:18:14.386Z,11.00
2023-11-14T00:20:16.129Z,4.78
2023-11-14T00:22:17.656Z,4.22
2023-11-14T00:24:19.204Z,6.57
2023-11-14T00:26:22.136Z,7.32
2023-11-14T00:28:23.639Z,5.20
2023-11-14T00:30:25.145Z,8.25
2023-11-14T00:32:26.767Z,4.93
2023-11-14T00:34:28.296Z,5.28
2023-11-14T00:36:29.783Z,6.38
2023-11-14T00:38:31.345Z,7.05
2023-11-14T00:40:32.920Z,8.18
2023-11-14T00:42:35.821Z,4.18
2023-11-14T00:44:37.393Z,4.78
2023-11-14T00:46:38.968Z,8.82
2023-11-14T00:48:40.704Z,10.88
2023-11-14T00:50:42.366Z,8.10
2023-11-14T00:52:43.895Z,5.38
2023-11-14T00:54:45.550Z,7.22
2023-11-14T00:56:47.077Z,6.32
2023-11-14T00:58:50.623Z,5.70
2023-11-14T01:00:52.268Z,7.65
2023-11-14T01:02:54.058Z,8.95
2023-11-14T01:04:55.719Z,7.15
2023-11-14T01:06:57.261Z,4.93
2023-11-14T01:08:58.952Z,7.07
2023-11-14T01:11:00.621Z,6.00
2023-11-14T01:13:02.232Z,5.65
2023-11-14T01:15:05.817Z,6.68
2023-11-14T01:17:07.394Z,5.82
2023-11-14T01:19:09.071Z,4.75
2023-11-14T01:21:15.729Z,6.55
2023-11-14T01:23:17.361Z,6.30
2023-11-14T01:25:19.011Z,4.00
2023-11-14T01:27:20.582Z,6.30
2023-11-14T01:29:22.118Z,5.40
2023-11-14T01:31:25.133Z,7.18
2023-11-14T01:33:26.706Z,6.90
2023-11-14T01:35:28.407Z,4.63
2023-11-14T01:37:30.006Z,6.55
2023-11-14T01:39:31.545Z,7.60
2023-11-14T01:41:33.178Z,10.32
2023-11-14T01:43:41.764Z,7.22
2023-11-14T01:45:43.442Z,5.47
2023-11-14T01:47:46.530Z,5.68
2023-11-14T01:49:48.289Z,8.20
2023-11-14T01:51:50.165Z,5.25
2023-11-14T01:53:53.080Z,7.00
2023-11-14T01:55:55.165Z,8.38
2023-11-14T01:57:56.922Z,7.60
2023-11-14T01:59:59.491Z,6.07
2023-11-14T02:02:01.182Z,5.72
2023-11-14T02:04:09.886Z,4.20
2023-11-14T02:06:11.540Z,5.75
2023-11-14T02:08:13.360Z,5.30
2023-11-14T02:10:15.013Z,7.10
2023-11-14T02:12:16.644Z,5.30
2023-11-14T02:14:18.324Z,5.25
2023-11-14T02:16:19.920Z,7.90
2023-11-14T02:18:21.567Z,10.20
2023-11-14T02:20:24.476Z,7.50
2023-11-14T02:22:27.573Z,6.13
2023-11-14T02:24:31.457Z,4.07
2023-11-14T02:26:34.879Z,4.47
2023-11-14T02:28:36.489Z,4.30
2023-11-14T02:30:38.610Z,6.18
2023-11-14T02:32:40.392Z,5.32
2023-11-14T02:34:42.096Z,5.53
2023-11-14T02:36:43.702Z,5.10
2023-11-14T02:38:45.217Z,6.63
2023-11-14T02:40:47.494Z,8.68
2023-11-14T02:42:50.774Z,5.13
2023-11-14T02:44:52.354Z,6.13
2023-11-14T02:46:53.945Z,5.57
2023-11-14T02:48:55.585Z,9.15
2023-11-14T02:50:57.545Z,6.03
2023-11-14T02:52:59.106Z,9.23
2023-11-14T02:55:00.667Z,8.20
2023-11-14T02:57:02.235Z,6.45
2023-11-14T02:59:05.288Z,4.32
2023-11-14T03:01:06.967Z,5.13
2023-11-14T03:03:08.863Z,6.88
2023-11-14T03:05:10.531Z,5.53
2023-11-14T03:07:12.140Z,5.00
2023-11-14T03:09:13.664Z,6.25
2023-11-14T03:11:15.211Z,5.90
2023-11-14T03:13:16.779Z,6.65
2023-11-14T03:15:19.678Z,4.20
2023-11-14T03:17:21.221Z,3.95
2023-11-14T03:19:23.124Z,7.32
2023-11-14T03:21:24.696Z,6.50
2023-11-14T03:23:26.198Z,5.18
2023-11-14T03:25:27.755Z,6.85
2023-11-14T03:27:29.298Z,5.93
2023-11-14T03:29:30.805Z,3.55
2023-11-14T03:31:33.765Z,3.92
2023-11-14T03:33:35.374Z,7.03
2023-11-14T03:35:36.903Z,5.18
2023-11-14T03:37:38.421Z,5.28
2023-11-14T03:39:41.461Z,8.25
2023-11-14T03:41:42.944Z,4.07
2023-11-14T03:43:44.513Z,5.68
2023-11-14T03:45:46.108Z,3.90
2023-11-14T03:47:49.126Z,3.90
2023-11-14T03:49:50.712Z,5.10
2023-11-14T03:51:52.253Z,4.05
2023-11-14T03:53:53.776Z,6.78
2023-11-14T03:55:55.327Z,4.40
2023-11-14T03:57:56.823Z,4.22
2023-11-14T03:59:58.453Z,6.75
2023-11-14T04:02:00.028Z,7.72
2023-11-14T04:04:03.014Z,6.03
2023-11-14T04:06:05.201Z,4.28
2023-11-14T04:08:06.797Z,5.32
2023-11-14T04:10:08.973Z,6.55
2023-11-14T04:12:10.584Z,5.32
2023-11-14T04:14:12.213Z,6.72
2023-11-14T04:16:13.814Z,2.92
2023-11-14T04:18:15.542Z,7.40
2023-11-14T04:20:18.482Z,3.13
2023-11-14T04:22:19.968Z,4.32
2023-11-14T04:24:21.510Z,7.53
2023-11-14T04:26:23.098Z,6.57
2023-11-14T04:28:24.657Z,5.20
2023-11-14T04:30:26.212Z,4.65
2023-11-14T04:32:27.860Z,6.65
2023-11-14T04:34:29.941Z,5.95
2023-11-14T04:36:32.959Z,6.22
2023-11-14T04:38:35.151Z,4.47
2023-11-14T04:40:36.773Z,6.85
2023-11-14T04:42:38.306Z,3.10
2023-11-14T04:44:39.934Z,5.43
2023-11-14T04:46:43.549Z,4.00
2023-11-14T04:48:45.201Z,2.90
2023-11-14T04:50:46.743Z,3.60
2023-11-14T04:52:49.658Z,3.85
2023-11-14T04:54:51.209Z,2.90
2023-11-14T04:56:52.716Z,4.35
2023-11-14T04:58:54.526Z,3.58
2023-11-14T05:00:56.219Z,3.20
2023-11-14T05:02:57.880Z,5.13
2023-11-14T05:04:59.461Z,6.68
2023-11-14T05:07:01.045Z,5.63
2023-11-14T05:09:04.207Z,4.35
2023-11-14T05:11:06.596Z,4.25
2023-11-14T05:13:08.216Z,2.33
2023-11-14T05:15:10.494Z,6.47
2023-11-14T05:17:12.085Z,5.18
2023-11-14T05:19:13.815Z,3.08
2023-11-14T05:21:15.495Z,4.80
2023-11-14T05:23:17.296Z,6.35
2023-11-14T05:25:20.274Z,5.50
2023-11-14T05:27:22.005Z,3.83
2023-11-14T05:29:23.570Z,5.90
2023-11-14T05:31:25.152Z,3.67
2023-11-14T05:33:26.682Z,2.78
2023-11-14T05:35:29.054Z,4.15
2023-11-14T05:37:30.731Z,4.97
2023-11-14T05:39:32.300Z,8.10
2023-11-14T05:41:35.173Z,3.67
2023-11-14T05:43:36.730Z,4.78
2023-11-14T05:45:38.324Z,4.88
2023-11-14T05:47:39.981Z,5.05
2023-11-14T05:49:41.605Z,5.70
2023-11-14T05:51:43.276Z,5.32
2023-11-14T05:53:44.807Z,4.88
2023-11-14T05:55:46.477Z,6.65
2023-11-14T05:57:49.528Z,5.63
2023-11-14T05:59:51.050Z,5.55
2023-11-14T06:01:52.836Z,3.85
2023-11-14T06:03:54.695Z,3.33
2023-11-14T06:05:56.444Z,3.20
2023-11-14T06:07:58.031Z,3.20
2023-11-14T06:09:59.530Z,4.32
2023-11-14T06:12:01.076Z,3.28
2023-11-14T06:14:04.042Z,4.03
2023-11-14T06:16:06.598Z,2.70
2023-11-14T06:18:08.184Z,6.43
2023-11-14T06:20:11.097Z,2.70
2023-11-14T06:22:12.846Z,6.32
2023-11-14T06:24:14.562Z,2.83
2023-11-14T06:26:16.157Z,6.00
2023-11-14T06:28:17.738Z,2.38
2023-11-14T06:30:21.017Z,6.93
2023-11-14T06:32:22.559Z,5.47
2023-11-14T06:34:24.111Z,4.40
2023-11-14T06:36:25.684Z,4.28
2023-11-14T06:38:27.737Z,4.60
2023-11-14T06:40:29.986Z,4.63
2023-11-14T06:42:31.667Z,5.22
2023-11-14T06:44:33.373Z,4.65
2023-11-14T06:46:36.284Z,2.80
2023-11-14T06:48:37.887Z,5.88
2023-11-14T06:50:44.491Z,3.78
2023-11-14T06:52:47.129Z,3.20
2023-11-14T06:54:48.684Z,3.92
2023-11-14T06:56:50.223Z,5.30
2023-11-14T06:58:51.752Z,4.85
2023-11-14T07:00:53.373Z,8.95
2023-11-14T07:02:56.405Z,2.95
2023-11-14T07:04:58.056Z,6.05
2023-11-14T07:06:59.615Z,5.38
2023-11-14T07:09:01.103Z,3.13
2023-11-14T07:11:02.684Z,3.40
2023-11-14T07:13:04.240Z,4.35
2023-11-14T07:15:06.949Z,2.90
2023-11-14T07:17:08.506Z,3.97
2023-11-14T07:19:11.402Z,3.30
2023-11-14T07:21:12.920Z,3.90
2023-11-14T07:23:14.481Z,2.67
2023-11-14T07:25:16.054Z,4.03
2023-11-14T07:27:17.571Z,2.08
2023-11-14T07:29:19.160Z,3.35
2023-11-14T07:31:20.760Z,5.50
2023-11-14T07:33:22.337Z,7.10
2023-11-14T07:35:25.213Z,1.65
2023-11-14T07:37:26.729Z,2.05
2023-11-14T07:39:28.225Z,2.67
2023-11-14T07:41:29.938Z,3.28
2023-11-14T07:43:31.516Z,2.22
2023-11-14T07:45:33.313Z,3.95
2023-11-14T07:47:34.957Z,2.60
2023-11-14T07:49:36.649Z,3.75
2023-11-14T07:51:39.556Z,3.08
2023-11-14T07:53:41.082Z,2.60
2023-11-14T07:55:42.933Z,3.92
2023-11-14T07:57:44.507Z,3.58
2023-11-14T07:59:46.028Z,5.93
2023-11-14T08:01:47.554Z,2.45
2023-11-14T08:03:49.208Z,3.28
2023-11-14T08:05:53.071Z,3.85
2023-11-14T08:07:56.175Z,6.38
2023-11-14T08:09:57.733Z,3.60
2023-11-14T08:11:59.302Z,3.15
2023-11-14T08:14:00.886Z,3.55
2023-11-14T08:16:02.534Z,3.55
2023-11-14T08:18:04.107Z,3.00
2023-11-14T08:20:06.435Z,3.70
2023-11-14T08:22:07.953Z,2.80
2023-11-14T08:24:11.012Z,2.55
2023-11-14T08:26:12.601Z,3.78
2023-11-14T08:28:14.247Z,4.80
2023-11-14T08:30:16.121Z,2.10
2023-11-14T08:32:17.747Z,3.20
2023-11-14T08:34:19.308Z,3.60
2023-11-14T08:36:20.840Z,3.38
2023-11-14T08:38:22.398Z,6.20
2023-11-14T08:40:25.280Z,5.97
2023-11-14T08:42:26.818Z,2.28
2023-11-14T08:44:28.340Z,2.45
2023-11-14T08:46:29.861Z,4.18
2023-11-14T08:48:31.505Z,2.72
2023-11-14T08:50:33.039Z,3.20
2023-11-14T08:52:34.543Z,3.42
2023-11-14T08:54:36.110Z,3.00
2023-11-14T08:56:38.971Z,5.80
2023-11-14T08:58:40.511Z,2.83
2023-11-14T09:00:42.063Z,3.28
2023-11-14T09:02:43.717Z,5.80
2023-11-14T09:04:45.299Z,4.07
2023-11-14T09:06:48.808Z,2.97
2023-11-14T09:08:51.546Z,3.92
2023-11-14T09:10:53.145Z,1.60
2023-11-14T09:12:56.008Z,3.78
2023-11-14T09:14:57.533Z,3.28
2023-11-14T09:16:59.218Z,3.20
2023-11-14T09:19:00.910Z,2.40
2023-11-14T09:21:02.656Z,2.28
2023-11-14T09:23:05.647Z,2.20
2023-11-14T09:25:07.952Z,2.65
2023-11-14T09:27:09.554Z,3.13
2023-11-14T09:29:12.428Z,3.78
2023-11-14T09:31:14.061Z,4.85
2023-11-14T09:33:15.589Z,2.70
2023-11-14T09:35:17.560Z,5.40
2023-11-14T09:37:19.339Z,2.80
2023-11-14T09:39:26.532Z,2.35
2023-11-14T09:41:30.239Z,1.75
2023-11-14T09:43:33.320Z,3.65
2023-11-14T09:45:37.146Z,2.97
2023-11-14T09:49:40.201Z,4.80
2023-11-14T09:51:43.076Z,3.13
2023-11-14T09:53:45.031Z,3.35
2023-11-14T09:55:46.926Z,2.03
2023-11-14T09:57:49.964Z,3.00
2023-11-14T09:59:51.963Z,4.63
2023-11-14T10:01:55.016Z,2.30
2023-11-14T10:03:57.075Z,2.53
2023-11-14T10:05:58.681Z,3.88
2023-11-14T10:08:00.607Z,3.72
2023-11-14T10:10:02.369Z,3.33
2023-11-14T10:12:17.740Z,1.88
2023-11-14T10:14:25.208Z,3.55
2023-11-14T10:16:26.829Z,5.13
2023-11-14T10:18:32.776Z,2.72
2023-11-14T10:20:47.433Z,3.13
2023-11-14T10:22:52.263Z,2.47
2023-11-14T10:26:55.261Z,2.50
2023-11-14T10:28:58.813Z,2.33
2023-11-14T10:31:15.228Z,3.10
2023-11-14T10:33:19.075Z,2.33
2023-11-14T10:35:22.668Z,3.70
2023-11-14T10:37:32.459Z,2.08
2023-11-14T10:39:34.034Z,4.28
2023-11-14T10:41:35.680Z,2.42
2023-11-14T10:43:37.644Z,3.28
2023-11-14T10:45:39.349Z,2.40
2023-11-14T10:47:42.413Z,2.53
2023-11-14T10:49:47.214Z,1.88
2023-11-14T10:51:51.646Z,3.47
2023-11-14T10:53:54.260Z,3.08
2023-11-14T10:55:56.610Z,3.10
2023-11-14T10:57:58.544Z,2.88
2023-11-14T11:00:01.578Z,2.63
2023-11-14T11:02:04.350Z,3.83
2023-11-14T11:04:07.587Z,5.28
2023-11-14T11:06:09.570Z,2.78
2023-11-14T11:08:14.105Z,2.45
2023-11-14T11:10:16.886Z,3.20
2023-11-14T11:12:18.964Z,1.92
2023-11-14T11:14:22.601Z,3.30
2023-11-14T11:16:44.145Z,5.43
2023-11-14T11:18:47.105Z,5.47
2023-11-14T11:20:49.175Z,3.72
2023-11-14T11:23:05.153Z,2.15
2023-11-14T11:27:24.926Z,2.90
2023-11-14T11:29:49.484Z,1.80
2023-11-14T11:32:24.584Z,4.88
2023-11-14T11:34:28.996Z,4.60
2023-11-14T11:36:33.763Z,4.30
2023-11-14T11:38:35.295Z,3.05
2023-11-14T11:41:14.580Z,1.75
2023-11-14T11:43:18.657Z,3.15
2023-11-14T11:45:33.439Z,2.00
2023-11-14T11:47:35.599Z,2.95
2023-11-14T11:49:37.600Z,2.65
2023-11-14T11:51:39.977Z,2.72
2023-11-14T11:53:41.630Z,2.90
2023-11-14T11:55:44.550Z,2.92
2023-11-14T11:57:46.083Z,2.58
2023-11-14T12:00:19.322Z,3.85
2023-11-14T12:02:22.123Z,5.63
2023-11-14T12:04:24.843Z,2.38
2023-11-14T12:06:27.321Z,5.00
2023-11-14T12:08:28.887Z,3.13
2023-11-14T12:10:30.434Z,5.72
2023-11-14T12:12:37.958Z,3.60
2023-11-14T12:14:40.277Z,5.53
2023-11-14T12:16:42.257Z,4.30
2023-11-14T12:18:43.772Z,2.60
2023-11-14T12:20:46.461Z,4.97
2023-11-14T12:22:48.636Z,3.85
2023-11-14T12:24:50.216Z,2.67
2023-11-14T12:26:51.962Z,3.03
2023-11-14T12:28:56.519Z,4.65
2023-11-14T12:30:58.369Z,4.78
2023-11-14T12:33:05.611Z,3.60
2023-11-14T12:35:08.329Z,2.75
2023-11-14T12:37:12.392Z,5.32
2023-11-14T12:39:15.306Z,2.40
2023-11-14T12:41:18.564Z,3.10
2023-11-14T12:43:20.169Z,3.05
2023-11-14T12:45:23.073Z,6.93
2023-11-14T12:47:24.706Z,3.45
2023-11-14T12:49:26.299Z,4.80
2023-11-14T12:51:27.846Z,3.80
2023-11-14T12:53:31.028Z,4.88
2023-11-14T12:55:32.614Z,6.53
2023-11-14T12:57:34.569Z,3.22
2023-11-14T12:59:36.885Z,3.85
2023-11-14T13:01:41.463Z,6.88
2023-11-14T13:03:43.037Z,2.97
2023-11-14T13:05:44.674Z,2.20
2023-11-14T13:07:46.228Z,2.63
2023-11-14T13:09:47.822Z,4.22
2023-11-14T13:11:49.440Z,3.50
2023-11-14T13:13:51.032Z,2.90
2023-11-14T13:15:52.564Z,4.10
2023-11-14T13:17:55.531Z,6.60
2023-11-14T13:19:57.853Z,3.97
2023-11-14T13:22:00.546Z,2.90
2023-11-14T13:24:02.936Z,3.50
2023-11-14T13:26:05.070Z,2.17
2023-11-14T13:28:06.597Z,3.38
2023-11-14T13:30:09.024Z,8.00
2023-11-14T13:32:10.687Z,3.33
2023-11-14T13:34:13.632Z,5.72
2023-11-14T13:36:15.180Z,6.18
2023-11-14T13:38:16.799Z,3.85
2023-11-14T13:40:18.322Z,6.35
2023-11-14T13:42:19.848Z,6.28
2023-11-14T13:44:21.381Z,4.43
2023-11-14T13:46:27.569Z,5.50
2023-11-14T13:48:30.314Z,5.88
2023-11-14T13:50:33.213Z,3.05
2023-11-14T13:52:34.777Z,3.60
2023-11-14T13:54:37.115Z,2.30
2023-11-14T13:56:38.690Z,5.65
2023-11-14T13:58:40.286Z,4.93
2023-11-14T14:00:41.805Z,2.90
2023-11-14T14:02:43.481Z,2.20
2023-11-14T14:04:45.180Z,4.00
2023-11-14T14:06:48.030Z,3.90
2023-11-14T14:08:49.558Z,5.93
2023-11-14T14:10:51.246Z,6.15
2023-11-14T14:12:52.798Z,4.82
2023-11-14T14:14:54.465Z,3.25
2023-11-14T14:16:56.175Z,3.10
2023-11-14T14:18:57.798Z,3.60
2023-11-14T14:20:59.333Z,5.88
2023-11-14T14:23:02.259Z,4.47
2023-11-14T14:25:05.776Z,6.18
2023-11-14T14:27:07.345Z,4.90
2023-11-14T14:29:09.048Z,2.08
2023-11-14T14:31:10.956Z,2.45
2023-11-14T14:33:12.866Z,3.78
2023-11-14T14:35:14.693Z,2.30
2023-11-14T14:37:16.341Z,3.30
2023-11-14T14:39:19.330Z,2.75
2023-11-14T14:41:20.933Z,3.42
2023-11-14T14:43:22.574Z,2.00
2023-11-14T14:45:24.093Z,2.28
2023-11-14T14:47:25.665Z,3.40
2023-11-14T14:49:27.259Z,4.03
2023-11-14T14:51:28.797Z,2.97
2023-11-14T14:53:30.391Z,3.13
2023-11-14T14:55:33.299Z,1.92
2023-11-14T14:57:34.853Z,3.33
2023-11-14T14:59:36.513Z,4.07
2023-11-14T15:01:38.132Z,2.60
2023-11-14T15:03:41.105Z,2.28
2023-11-14T15:05:42.626Z,2.55
2023-11-14T15:07:44.162Z,2.33
2023-11-14T15:09:46.343Z,4.75
2023-11-14T15:11:49.251Z,4.57
2023-11-14T15:13:50.771Z,3.20
2023-11-14T15:15:52.620Z,2.75
2023-11-14T15:17:54.289Z,2.17
2023-11-14T15:19:55.918Z,2.50
2023-11-14T15:21:57.503Z,3.13
2023-11-14T15:23:59.014Z,2.17
2023-11-14T15:26:00.626Z,3.75
2023-11-14T15:28:03.548Z,1.98
2023-11-14T15:30:06.752Z,3.13
2023-11-14T15:32:10.894Z,1.88
2023-11-14T15:34:13.206Z,2.88
2023-11-14T15:36:14.791Z,3.33
2023-11-14T15:38:16.619Z,7.43
2023-11-14T15:40:18.412Z,3.67
2023-11-14T15:42:20.067Z,4.57
2023-11-14T15:44:22.974Z,4.75
2023-11-14T15:46:24.511Z,2.67
2023-11-14T15:48:26.044Z,2.50
2023-11-14T15:50:27.674Z,2.80
2023-11-14T15:52:29.526Z,3.20
2023-11-14T15:54:31.113Z,2.13
2023-11-14T15:56:32.830Z,1.88
2023-11-14T15:58:34.409Z,2.55
2023-11-14T16:00:37.303Z,3.08
2023-11-14T16:02:38.945Z,1.90
2023-11-14T16:04:40.516Z,2.03
2023-11-14T16:06:42.120Z,2.22
2023-11-14T16:08:43.661Z,2.65
2023-11-14T16:10:45.281Z,2.63
2023-11-14T16:12:46.835Z,2.47
2023-11-14T16:14:48.375Z,1.83
2023-11-14T16:16:51.277Z,2.30
2023-11-14T16:18:52.818Z,2.38
2023-11-14T16:20:54.338Z,2.80
2023-11-14T16:22:55.964Z,3.72
2023-11-14T16:24:57.609Z,2.65
2023-11-14T16:26:59.248Z,5.03
2023-11-14T16:29:00.933Z,3.80
2023-11-14T16:31:02.666Z,2.70
2023-11-14T16:33:05.596Z,3.72
2023-11-14T16:35:07.734Z,2.38
2023-11-14T16:37:09.274Z,1.70
2023-11-14T16:39:10.809Z,1.95
2023-11-14T16:41:12.395Z,2.47
2023-11-14T16:43:14.002Z,2.00
2023-11-14T16:45:15.664Z,2.38
2023-11-14T16:47:17.253Z,2.53
2023-11-14T16:49:20.265Z,1.95
2023-11-14T16:51:22.217Z,3.47
2023-11-14T16:53:23.783Z,2.33
2023-11-14T16:55:25.470Z,2.08
2023-11-14T16:57:26.951Z,1.73
2023-11-14T16:59:28.488Z,2.17
2023-11-14T17:01:30.133Z,2.15
2023-11-14T17:03:31.810Z,1.70
2023-11-14T17:05:34.822Z,3.42
2023-11-14T17:07:36.372Z,2.45
2023-11-14T17:09:38.077Z,3.13
2023-11-14T17:11:39.604Z,2.38
2023-11-14T17:13:41.180Z,3.80
2023-11-14T17:15:42.897Z,2.65
2023-11-14T17:17:44.486Z,3.65
2023-11-14T17:19:46.077Z,2.25
2023-11-14T17:21:48.944Z,3.38
2023-11-14T17:23:50.536Z,3.00
2023-11-14T17:25:52.049Z,2.65
2023-11-14T17:27:53.586Z,3.10
2023-11-14T17:29:55.103Z,2.50
2023-11-14T17:31:56.662Z,2.05
2023-11-14T17:33:58.224Z,2.78
2023-11-14T17:35:59.878Z,3.05
2023-11-14T17:38:02.860Z,2.15
2023-11-14T17:40:05.613Z,3.67
2023-11-14T17:42:07.324Z,3.25
2023-11-14T17:44:09.020Z,2.97
2023-11-14T17:46:10.654Z,2.80
2023-11-14T17:48:12.364Z,3.00
2023-11-14T17:50:14.135Z,2.55
2023-11-14T17:52:15.859Z,2.53
2023-11-14T17:54:18.908Z,2.67
2023-11-14T17:56:20.647Z,4.15
2023-11-14T17:58:22.209Z,5.57
2023-11-14T18:00:23.870Z,3.13
2023-11-14T18:02:25.481Z,3.15
2023-11-14T18:04:27.124Z,2.63
2023-11-14T18:06:28.786Z,2.60
2023-11-14T18:08:30.508Z,3.25
2023-11-14T18:10:33.522Z,2.80
2023-11-14T18:12:35.098Z,3.13
2023-11-14T18:14:36.665Z,2.88
2023-11-14T18:16:38.241Z,3.88
2023-11-14T18:18:39.840Z,2.47
2023-11-14T18:20:41.460Z,3.42
2023-11-14T18:22:43.077Z,2.92
2023-11-14T18:24:44.631Z,2.20
2023-11-14T18:26:47.598Z,2.92
2023-11-14T18:28:49.225Z,2.75
2023-11-14T18:30:50.802Z,2.17
2023-11-14T18:32:52.456Z,3.25
2023-11-14T18:34:53.984Z,3.00
2023-11-14T18:36:55.492Z,2.58
2023-11-14T18:38:57.034Z,2.80
2023-11-14T18:40:58.577Z,3.42
2023-11-14T18:43:01.591Z,2.92
2023-11-14T18:45:07.780Z,3.40
2023-11-14T18:47:10.119Z,3.55
2023-11-14T18:49:11.840Z,3.05
2023-11-14T18:51:13.607Z,4.85
2023-11-14T18:53:15.194Z,6.00
2023-11-14T18:55:16.807Z,2.45
2023-11-14T18:57:18.415Z,2.45
2023-11-14T18:59:21.331Z,3.17
2023-11-14T19:01:22.957Z,3.58
2023-11-14T19:03:24.762Z,3.58
2023-11-14T19:05:26.818Z,5.25
2023-11-14T19:07:28.518Z,16.92
2023-11-14T19:09:30.032Z,12.25
2023-11-14T19:11:31.546Z,24.83
2023-11-14T19:13:33.161Z,26.33
2023-11-14T19:15:36.209Z,24.45
2023-11-14T19:17:37.904Z,33.42
2023-11-14T19:19:39.588Z,29.65
2023-11-14T19:21:45.490Z,9.85
2023-11-14T19:23:48.121Z,6.97
2023-11-14T19:25:49.819Z,28.58
2023-11-14T19:27:51.345Z,6.05
2023-11-14T19:29:52.834Z,2.65
2023-11-14T19:31:55.767Z,2.55
2023-11-14T19:33:57.300Z,2.42
2023-11-14T19:35:58.812Z,3.00
2023-11-14T19:38:00.338Z,2.58
2023-11-14T19:40:01.873Z,2.83
2023-11-14T19:42:03.970Z,6.15
2023-11-14T19:44:05.724Z,3.50
2023-11-14T19:46:07.261Z,2.58
2023-11-14T19:48:10.160Z,3.17
2023-11-14T19:50:11.774Z,3.25
2023-11-14T19:52:14.058Z,5.65
2023-11-14T19:54:15.665Z,6.90
2023-11-14T19:56:17.269Z,4.20
2023-11-14T19:58:18.823Z,3.38
2023-11-14T20:00:20.644Z,3.13
2023-11-14T20:02:22.251Z,2.95
2023-11-14T20:04:25.223Z,2.97
2023-11-14T20:06:26.842Z,2.90
2023-11-14T20:08:28.435Z,2.80
2023-11-14T20:10:30.335Z,2.70
2023-11-14T20:12:31.932Z,2.85
2023-11-14T20:14:33.593Z,2.95
2023-11-14T20:16:35.221Z,2.22
2023-11-14T20:18:36.841Z,3.95
2023-11-14T20:20:39.744Z,2.97
2023-11-14T20:22:41.645Z,2.10
2023-11-14T20:24:43.240Z,1.83
2023-11-14T20:26:44.977Z,1.80
2023-11-14T20:28:46.610Z,2.65
2023-11-14T20:30:48.183Z,1.55
2023-11-14T20:32:49.874Z,2.85
2023-11-14T20:34:51.467Z,1.75
2023-11-14T20:36:54.358Z,1.95
2023-11-14T20:38:56.000Z,1.90
2023-11-14T20:40:57.568Z,2.40
2023-11-14T20:42:59.089Z,2.50
2023-11-14T20:45:00.950Z,2.00
2023-11-14T20:47:02.497Z,2.10
2023-11-14T20:49:04.400Z,2.75
2023-11-14T20:51:14.262Z,2.05
2023-11-14T20:53:25.125Z,1.55
2023-11-14T20:55:26.677Z,2.33
2023-11-14T20:57:28.205Z,2.67
2023-11-14T20:59:29.738Z,3.03
2023-11-14T21:01:31.315Z,1.85
2023-11-14T21:03:32.882Z,2.05
2023-11-14T21:05:34.473Z,2.97
2023-11-14T21:07:36.037Z,3.10
2023-11-14T21:09:38.934Z,3.40
2023-11-14T21:11:40.609Z,3.33
2023-11-14T21:13:44.141Z,3.53
2023-11-14T21:15:45.700Z,2.50
2023-11-14T21:17:52.717Z,1.40
2023-11-14T21:19:54.979Z,1.83
2023-11-14T21:21:56.477Z,3.03
2023-11-14T21:23:58.565Z,2.10
2023-11-14T21:26:01.477Z,5.38
2023-11-14T21:28:03.051Z,2.50
2023-11-14T21:30:05.631Z,2.78
2023-11-14T21:32:07.212Z,3.80
2023-11-14T21:34:09.225Z,3.10
2023-11-14T21:36:11.587Z,2.60
2023-11-14T21:38:13.180Z,1.75
2023-11-14T21:40:15.261Z,1.55
2023-11-14T21:42:18.265Z,2.22
2023-11-14T21:44:19.926Z,2.30
2023-11-14T21:46:21.510Z,1.58
2023-11-14T21:48:23.628Z,2.00
2023-11-14T21:50:25.238Z,2.50
2023-11-14T21:52:26.959Z,2.97
2023-11-14T21:54:28.600Z,1.85
2023-11-14T21:56:30.160Z,1.52
2023-11-14T21:58:33.184Z,1.65
2023-11-14T22:00:34.752Z,2.33
2023-11-14T22:02:36.370Z,1.73
2023-11-14T22:04:37.941Z,2.83
2023-11-14T22:06:39.454Z,2.45
2023-11-14T22:08:41.023Z,1.42
2023-11-14T22:10:42.617Z,2.25
2023-11-14T22:12:44.416Z,3.90
2023-11-14T22:14:47.373Z,2.03
2023-11-14T22:16:48.933Z,3.05
2023-11-14T22:18:50.444Z,2.47
2023-11-14T22:20:52.041Z,1.08
2023-11-14T22:22:53.545Z,2.33
2023-11-14T22:24:55.082Z,4.47
2023-11-14T22:26:56.633Z,3.40
2023-11-14T22:29:00.221Z,2.10
2023-11-14T22:31:05.067Z,1.55
2023-11-14T22:33:06.710Z,2.55
2023-11-14T22:35:08.540Z,2.72
2023-11-14T22:37:11.830Z,1.77
2023-11-14T22:39:13.517Z,2.78
2023-11-14T22:41:15.145Z,1.58
2023-11-14T22:43:17.424Z,1.25
2023-11-14T22:45:19.203Z,2.53
2023-11-14T22:47:22.091Z,1.98
2023-11-14T22:49:23.617Z,2.75
2023-11-14T22:51:25.283Z,3.08
2023-11-14T22:53:26.826Z,3.38
2023-11-14T22:55:28.531Z,3.63
2023-11-14T22:57:30.072Z,2.95
2023-11-14T22:59:31.680Z,4.53
2023-11-14T23:01:36.722Z,3.00
2023-11-14T23:03:39.684Z,2.58
2023-11-14T23:05:42.002Z,1.98
2023-11-14T23:07:43.523Z,4.85
2023-11-14T23:09:45.038Z,5.25
2023-11-14T23:11:48.348Z,2.47
2023-11-14T23:13:49.978Z,3.03
2023-11-14T23:15:51.475Z,2.28
2023-11-14T23:17:53.165Z,4.00
2023-11-14T23:19:56.096Z,2.25
2023-11-14T23:21:59.927Z,2.92
2023-11-14T23:24:01.789Z,2.70
2023-11-14T23:26:03.524Z,2.72
2023-11-14T23:28:05.290Z,3.20
2023-11-14T23:30:08.202Z,2.28
2023-11-14T23:32:09.700Z,2.17
2023-11-14T23:34:11.200Z,3.35
2023-11-14T23:36:15.165Z,3.55
2023-11-14T23:38:17.716Z,2.30
2023-11-14T23:40:19.628Z,2.72
2023-11-14T23:42:21.220Z,1.75
2023-11-14T23:44:22.824Z,2.78
2023-11-14T23:46:24.503Z,2.20
2023-11-14T23:48:26.130Z,2.17
2023-11-14T23:50:27.827Z,2.15
2023-11-14T23:52:30.911Z,3.20
2023-11-14T23:54:32.578Z,3.22
2023-11-14T23:56:36.527Z,2.20
2023-11-14T23:58:38.687Z,2.33
